sensor_id;sensor_type;location;lat;lon;timestamp;temperature;humidity
36790;DHT22;22740;52.182;8.780;2023-04-29T00:02:46;11.50;99.90
36790;DHT22;22740;52.182;8.780;2023-04-29T00:09:01;11.40;99.90
36790;DHT22;22740;52.182;8.780;2023-04-29T00:15:10;11.40;99.90
36790;DHT22;22740;52.182;8.780;2023-04-29T00:21:25;11.30;99.90
36790;DHT22;22740;52.182;8.780;2023-04-29T00:27:37;11.30;99.90
36790;DHT22;22740;52.182;8.780;2023-04-29T00:33:46;11.30;99.90
36790;DHT22;22740;52.182;8.780;2023-04-29T00:39:54;11.30;99.90
36790;DHT22;22740;52.182;8.780;2023-04-29T00:46:02;11.20;99.90
36790;DHT22;22740;52.182;8.780;2023-04-29T00:52:12;11.20;99.90
36790;DHT22;22740;52.182;8.780;2023-04-29T00:58:21;11.20;99.90
36790;DHT22;22740;52.182;8.780;2023-04-29T01:04:31;11.10;99.90
36790;DHT22;22740;52.182;8.780;2023-04-29T01:11:08;11.20;99.90
36790;DHT22;22740;52.182;8.780;2023-04-29T01:17:18;11.20;99.90
36790;DHT22;22740;52.182;8.780;2023-04-29T01:23:30;11.10;99.90
36790;DHT22;22740;52.182;8.780;2023-04-29T01:30:00;11.20;99.90
36790;DHT22;22740;52.182;8.780;2023-04-29T01:43:00;11.10;99.90
36790;DHT22;22740;52.182;8.780;2023-04-29T01:49:09;11.00;99.90
36790;DHT22;22740;52.182;8.780;2023-04-29T01:55:17;10.90;99.90
36790;DHT22;22740;52.182;8.780;2023-04-29T02:01:33;10.90;99.90
36790;DHT22;22740;52.182;8.780;2023-04-29T02:07:41;10.80;99.90
36790;DHT22;22740;52.182;8.780;2023-04-29T02:13:52;10.80;99.90
36790;DHT22;22740;52.182;8.780;2023-04-29T02:20:02;10.80;99.90
36790;DHT22;22740;52.182;8.780;2023-04-29T02:26:11;10.70;99.90
36790;DHT22;22740;52.182;8.780;2023-04-29T02:32:21;10.60;99.90
36790;DHT22;22740;52.182;8.780;2023-04-29T02:38:30;10.50;99.90
36790;DHT22;22740;52.182;8.780;2023-04-29T02:44:38;10.60;99.90
36790;DHT22;22740;52.182;8.780;2023-04-29T02:50:47;10.60;99.90
36790;DHT22;22740;52.182;8.780;2023-04-29T02:56:55;10.50;99.90
36790;DHT22;22740;52.182;8.780;2023-04-29T03:03:03;10.40;99.90
36790;DHT22;22740;52.182;8.780;2023-04-29T03:09:18;10.40;99.90
36790;DHT22;22740;52.182;8.780;2023-04-29T03:15:28;10.50;99.90
36790;DHT22;22740;52.182;8.780;2023-04-29T03:21:37;10.40;99.90
36790;DHT22;22740;52.182;8.780;2023-04-29T03:27:45;10.50;99.90
36790;DHT22;22740;52.182;8.780;2023-04-29T03:33:54;10.50;99.90
36790;DHT22;22740;52.182;8.780;2023-04-29T03:40:02;10.30;99.90
36790;DHT22;22740;52.182;8.780;2023-04-29T03:46:11;10.30;99.90
36790;DHT22;22740;52.182;8.780;2023-04-29T03:52:19;10.20;99.90
36790;DHT22;22740;52.182;8.780;2023-04-29T03:58:27;10.30;99.90
36790;DHT22;22740;52.182;8.780;2023-04-29T04:04:41;10.10;99.90
36790;DHT22;22740;52.182;8.780;2023-04-29T04:10:50;10.10;99.90
36790;DHT22;22740;52.182;8.780;2023-04-29T04:16:59;10.10;99.90
36790;DHT22;22740;52.182;8.780;2023-04-29T04:23:08;10.00;99.90
36790;DHT22;22740;52.182;8.780;2023-04-29T04:29:16;10.10;99.90
36790;DHT22;22740;52.182;8.780;2023-04-29T04:35:24;10.20;99.90
36790;DHT22;22740;52.182;8.780;2023-04-29T04:41:32;10.10;99.90
36790;DHT22;22740;52.182;8.780;2023-04-29T04:47:40;10.00;99.90
36790;DHT22;22740;52.182;8.780;2023-04-29T04:53:49;10.10;99.90
36790;DHT22;22740;52.182;8.780;2023-04-29T04:59:57;9.90;99.90
36790;DHT22;22740;52.182;8.780;2023-04-29T05:06:05;9.90;99.90
36790;DHT22;22740;52.182;8.780;2023-04-29T05:12:20;10.00;99.90
36790;DHT22;22740;52.182;8.780;2023-04-29T05:18:28;10.00;99.90
36790;DHT22;22740;52.182;8.780;2023-04-29T05:24:36;10.00;99.90
36790;DHT22;22740;52.182;8.780;2023-04-29T05:30:44;9.90;99.90
36790;DHT22;22740;52.182;8.780;2023-04-29T05:36:53;10.00;99.90
36790;DHT22;22740;52.182;8.780;2023-04-29T05:43:01;9.90;99.90
36790;DHT22;22740;52.182;8.780;2023-04-29T05:49:09;9.90;99.90
36790;DHT22;22740;52.182;8.780;2023-04-29T05:55:17;9.90;99.90
36790;DHT22;22740;52.182;8.780;2023-04-29T06:01:31;9.90;99.90
36790;DHT22;22740;52.182;8.780;2023-04-29T06:07:40;10.00;99.90
36790;DHT22;22740;52.182;8.780;2023-04-29T06:13:49;10.00;99.90
36790;DHT22;22740;52.182;8.780;2023-04-29T06:19:57;9.90;99.90
36790;DHT22;22740;52.182;8.780;2023-04-29T06:26:05;10.00;99.90
36790;DHT22;22740;52.182;8.780;2023-04-29T06:32:14;10.10;99.90
36790;DHT22;22740;52.182;8.780;2023-04-29T06:38:23;10.10;99.90
36790;DHT22;22740;52.182;8.780;2023-04-29T06:44:32;10.10;99.90
36790;DHT22;22740;52.182;8.780;2023-04-29T06:50:51;10.10;99.90
36790;DHT22;22740;52.182;8.780;2023-04-29T06:57:00;10.10;99.90
36790;DHT22;22740;52.182;8.780;2023-04-29T07:03:09;10.10;99.90
36790;DHT22;22740;52.182;8.780;2023-04-29T07:09:24;10.10;99.90
36790;DHT22;22740;52.182;8.780;2023-04-29T07:15:35;10.00;99.90
36790;DHT22;22740;52.182;8.780;2023-04-29T07:21:44;10.00;99.90
36790;DHT22;22740;52.182;8.780;2023-04-29T07:27:53;10.20;99.90
36790;DHT22;22740;52.182;8.780;2023-04-29T07:34:01;10.00;99.90
36790;DHT22;22740;52.182;8.780;2023-04-29T07:40:16;10.10;99.90
36790;DHT22;22740;52.182;8.780;2023-04-29T07:46:25;10.20;99.90
36790;DHT22;22740;52.182;8.780;2023-04-29T07:52:33;10.20;99.90
36790;DHT22;22740;52.182;8.780;2023-04-29T07:58:41;10.40;99.90
36790;DHT22;22740;52.182;8.780;2023-04-29T08:04:55;10.50;99.90
36790;DHT22;22740;52.182;8.780;2023-04-29T08:11:05;10.80;99.90
36790;DHT22;22740;52.182;8.780;2023-04-29T08:17:14;11.00;99.90
36790;DHT22;22740;52.182;8.780;2023-04-29T08:23:29;11.10;99.90
36790;DHT22;22740;52.182;8.780;2023-04-29T08:29:37;11.20;99.90
36790;DHT22;22740;52.182;8.780;2023-04-29T08:35:46;11.30;99.90
36790;DHT22;22740;52.182;8.780;2023-04-29T08:41:55;11.40;99.90
36790;DHT22;22740;52.182;8.780;2023-04-29T08:48:05;11.50;99.90
36790;DHT22;22740;52.182;8.780;2023-04-29T08:54:14;11.90;99.90
36790;DHT22;22740;52.182;8.780;2023-04-29T09:00:23;11.80;99.90
36790;DHT22;22740;52.182;8.780;2023-04-29T09:06:38;11.90;99.90
36790;DHT22;22740;52.182;8.780;2023-04-29T09:12:55;12.00;99.90
36790;DHT22;22740;52.182;8.780;2023-04-29T09:19:05;12.40;99.90
36790;DHT22;22740;52.182;8.780;2023-04-29T09:25:13;12.60;99.90
36790;DHT22;22740;52.182;8.780;2023-04-29T09:31:30;12.90;99.90
36790;DHT22;22740;52.182;8.780;2023-04-29T09:37:39;13.40;99.90
36790;DHT22;22740;52.182;8.780;2023-04-29T09:44:07;13.40;99.90
36790;DHT22;22740;52.182;8.780;2023-04-29T09:50:16;13.20;99.90
36790;DHT22;22740;52.182;8.780;2023-04-29T09:56:27;13.10;99.90
36790;DHT22;22740;52.182;8.780;2023-04-29T10:02:41;13.00;99.90
36790;DHT22;22740;52.182;8.780;2023-04-29T10:09:14;12.90;99.90
36790;DHT22;22740;52.182;8.780;2023-04-29T10:15:31;12.80;99.90
36790;DHT22;22740;52.182;8.780;2023-04-29T10:21:51;12.90;99.90
36790;DHT22;22740;52.182;8.780;2023-04-29T10:28:02;12.80;99.90
36790;DHT22;22740;52.182;8.780;2023-04-29T10:34:12;12.90;99.90
36790;DHT22;22740;52.182;8.780;2023-04-29T10:40:35;13.20;99.90
36790;DHT22;22740;52.182;8.780;2023-04-29T10:47:18;13.40;99.90
36790;DHT22;22740;52.182;8.780;2023-04-29T10:53:29;13.40;99.90
36790;DHT22;22740;52.182;8.780;2023-04-29T11:05:46;13.70;99.90
36790;DHT22;22740;52.182;8.780;2023-04-29T11:12:03;13.60;99.90
36790;DHT22;22740;52.182;8.780;2023-04-29T11:18:12;13.50;99.90
36790;DHT22;22740;52.182;8.780;2023-04-29T11:24:21;13.20;99.90
36790;DHT22;22740;52.182;8.780;2023-04-29T11:30:29;13.30;99.90
36790;DHT22;22740;52.182;8.780;2023-04-29T11:36:38;13.40;99.90
36790;DHT22;22740;52.182;8.780;2023-04-29T11:42:48;13.40;99.90
36790;DHT22;22740;52.182;8.780;2023-04-29T11:48:57;13.80;99.90
36790;DHT22;22740;52.182;8.780;2023-04-29T11:55:10;14.10;99.90
36790;DHT22;22740;52.182;8.780;2023-04-29T12:01:19;14.00;99.90
36790;DHT22;22740;52.182;8.780;2023-04-29T12:07:35;13.50;99.90
36790;DHT22;22740;52.182;8.780;2023-04-29T12:13:44;13.50;99.90
36790;DHT22;22740;52.182;8.780;2023-04-29T12:19:53;13.60;99.90
36790;DHT22;22740;52.182;8.780;2023-04-29T12:26:03;13.80;99.90
36790;DHT22;22740;52.182;8.780;2023-04-29T12:32:20;13.90;99.90
36790;DHT22;22740;52.182;8.780;2023-04-29T12:38:29;13.90;99.90
36790;DHT22;22740;52.182;8.780;2023-04-29T12:44:38;13.80;99.90
36790;DHT22;22740;52.182;8.780;2023-04-29T12:50:48;13.70;99.90
36790;DHT22;22740;52.182;8.780;2023-04-29T12:56:58;13.40;99.90
36790;DHT22;22740;52.182;8.780;2023-04-29T13:03:12;13.10;99.90
36790;DHT22;22740;52.182;8.780;2023-04-29T13:09:29;13.00;99.90
36790;DHT22;22740;52.182;8.780;2023-04-29T13:15:38;13.00;99.90
36790;DHT22;22740;52.182;8.780;2023-04-29T13:21:46;13.20;99.90
36790;DHT22;22740;52.182;8.780;2023-04-29T13:27:55;13.40;99.90
36790;DHT22;22740;52.182;8.780;2023-04-29T13:34:04;13.30;99.90
36790;DHT22;22740;52.182;8.780;2023-04-29T13:40:12;13.20;99.90
36790;DHT22;22740;52.182;8.780;2023-04-29T13:46:22;13.20;99.90
36790;DHT22;22740;52.182;8.780;2023-04-29T13:52:32;13.30;99.90
36790;DHT22;22740;52.182;8.780;2023-04-29T13:59:00;13.70;99.90
36790;DHT22;22740;52.182;8.780;2023-04-29T14:05:17;14.00;99.90
36790;DHT22;22740;52.182;8.780;2023-04-29T14:11:26;14.10;99.90
36790;DHT22;22740;52.182;8.780;2023-04-29T14:17:35;14.10;99.90
36790;DHT22;22740;52.182;8.780;2023-04-29T14:23:44;14.10;99.90
36790;DHT22;22740;52.182;8.780;2023-04-29T14:29:52;14.10;99.90
36790;DHT22;22740;52.182;8.780;2023-04-29T14:36:00;14.10;99.90
36790;DHT22;22740;52.182;8.780;2023-04-29T14:42:08;14.20;99.90
36790;DHT22;22740;52.182;8.780;2023-04-29T14:48:16;14.30;99.90
36790;DHT22;22740;52.182;8.780;2023-04-29T14:54:24;14.30;99.90
36790;DHT22;22740;52.182;8.780;2023-04-29T15:00:35;14.30;99.90
36790;DHT22;22740;52.182;8.780;2023-04-29T15:06:44;14.40;99.90
36790;DHT22;22740;52.182;8.780;2023-04-29T15:12:59;14.30;99.90
36790;DHT22;22740;52.182;8.780;2023-04-29T15:19:08;13.90;99.90
36790;DHT22;22740;52.182;8.780;2023-04-29T15:25:16;13.70;99.90
36790;DHT22;22740;52.182;8.780;2023-04-29T15:31:27;13.50;99.90
36790;DHT22;22740;52.182;8.780;2023-04-29T15:37:37;13.40;99.90
36790;DHT22;22740;52.182;8.780;2023-04-29T15:43:46;13.50;99.90
36790;DHT22;22740;52.182;8.780;2023-04-29T15:49:54;13.60;99.90
36790;DHT22;22740;52.182;8.780;2023-04-29T15:56:03;13.50;99.90
36790;DHT22;22740;52.182;8.780;2023-04-29T16:02:12;13.60;99.90
36790;DHT22;22740;52.182;8.780;2023-04-29T16:08:28;13.50;99.90
36790;DHT22;22740;52.182;8.780;2023-04-29T16:14:37;13.50;99.90
36790;DHT22;22740;52.182;8.780;2023-04-29T16:20:45;13.50;99.90
36790;DHT22;22740;52.182;8.780;2023-04-29T16:26:53;13.50;99.90
36790;DHT22;22740;52.182;8.780;2023-04-29T16:33:03;13.40;99.90
36790;DHT22;22740;52.182;8.780;2023-04-29T16:39:11;13.40;99.90
36790;DHT22;22740;52.182;8.780;2023-04-29T16:45:19;13.40;99.90
36790;DHT22;22740;52.182;8.780;2023-04-29T16:51:29;13.30;99.90
36790;DHT22;22740;52.182;8.780;2023-04-29T16:57:38;13.30;99.90
36790;DHT22;22740;52.182;8.780;2023-04-29T17:03:48;13.20;99.90
36790;DHT22;22740;52.182;8.780;2023-04-29T17:10:04;13.20;99.90
36790;DHT22;22740;52.182;8.780;2023-04-29T17:16:13;13.30;99.90
36790;DHT22;22740;52.182;8.780;2023-04-29T17:22:22;13.20;99.90
36790;DHT22;22740;52.182;8.780;2023-04-29T17:28:31;13.30;99.90
36790;DHT22;22740;52.182;8.780;2023-04-29T17:34:40;13.40;99.90
36790;DHT22;22740;52.182;8.780;2023-04-29T17:40:49;14.00;99.90
36790;DHT22;22740;52.182;8.780;2023-04-29T17:46:57;14.50;99.90
36790;DHT22;22740;52.182;8.780;2023-04-29T17:53:05;14.60;99.90
36790;DHT22;22740;52.182;8.780;2023-04-29T17:59:13;14.50;99.90
36790;DHT22;22740;52.182;8.780;2023-04-29T18:05:28;13.80;99.90
36790;DHT22;22740;52.182;8.780;2023-04-29T18:11:36;13.50;99.90
36790;DHT22;22740;52.182;8.780;2023-04-29T18:17:44;13.30;99.90
36790;DHT22;22740;52.182;8.780;2023-04-29T18:23:53;13.10;99.90
36790;DHT22;22740;52.182;8.780;2023-04-29T18:30:02;12.70;99.90
36790;DHT22;22740;52.182;8.780;2023-04-29T18:36:11;12.40;99.90
36790;DHT22;22740;52.182;8.780;2023-04-29T18:42:21;12.20;99.90
36790;DHT22;22740;52.182;8.780;2023-04-29T18:48:36;12.00;99.90
36790;DHT22;22740;52.182;8.780;2023-04-29T18:54:46;11.80;99.90
36790;DHT22;22740;52.182;8.780;2023-04-29T19:00:54;11.60;99.90
36790;DHT22;22740;52.182;8.780;2023-04-29T19:07:09;11.40;99.90
36790;DHT22;22740;52.182;8.780;2023-04-29T19:13:18;11.30;99.90
36790;DHT22;22740;52.182;8.780;2023-04-29T19:19:26;11.10;99.90
36790;DHT22;22740;52.182;8.780;2023-04-29T19:25:34;11.10;99.90
36790;DHT22;22740;52.182;8.780;2023-04-29T19:31:42;11.10;99.90
36790;DHT22;22740;52.182;8.780;2023-04-29T19:37:51;10.90;99.90
36790;DHT22;22740;52.182;8.780;2023-04-29T19:44:02;10.70;99.90
36790;DHT22;22740;52.182;8.780;2023-04-29T19:50:10;10.60;99.90
36790;DHT22;22740;52.182;8.780;2023-04-29T19:56:18;10.40;99.90
36790;DHT22;22740;52.182;8.780;2023-04-29T20:02:27;10.30;99.90
36790;DHT22;22740;52.182;8.780;2023-04-29T20:08:35;10.40;99.90
36790;DHT22;22740;52.182;8.780;2023-04-29T20:14:44;10.30;99.90
36790;DHT22;22740;52.182;8.780;2023-04-29T20:20:52;9.90;99.90
36790;DHT22;22740;52.182;8.780;2023-04-29T20:27:00;9.50;99.90
36790;DHT22;22740;52.182;8.780;2023-04-29T20:33:09;9.30;99.90
36790;DHT22;22740;52.182;8.780;2023-04-29T20:39:17;9.30;99.90
36790;DHT22;22740;52.182;8.780;2023-04-29T20:45:26;9.30;99.90
36790;DHT22;22740;52.182;8.780;2023-04-29T20:51:34;9.30;99.90
36790;DHT22;22740;52.182;8.780;2023-04-29T20:57:43;9.30;99.90
36790;DHT22;22740;52.182;8.780;2023-04-29T21:03:51;9.30;99.90
36790;DHT22;22740;52.182;8.780;2023-04-29T21:09:59;9.30;99.90
36790;DHT22;22740;52.182;8.780;2023-04-29T21:16:14;9.40;99.90
36790;DHT22;22740;52.182;8.780;2023-04-29T21:22:22;9.50;99.90
36790;DHT22;22740;52.182;8.780;2023-04-29T21:28:31;9.50;99.90
36790;DHT22;22740;52.182;8.780;2023-04-29T21:34:39;9.50;99.90
36790;DHT22;22740;52.182;8.780;2023-04-29T21:40:47;9.40;99.90
36790;DHT22;22740;52.182;8.780;2023-04-29T21:46:55;9.30;99.90
36790;DHT22;22740;52.182;8.780;2023-04-29T21:53:04;9.40;99.90
36790;DHT22;22740;52.182;8.780;2023-04-29T21:59:15;9.40;99.90
36790;DHT22;22740;52.182;8.780;2023-04-29T22:05:23;9.40;99.90
36790;DHT22;22740;52.182;8.780;2023-04-29T22:11:32;9.40;99.90
36790;DHT22;22740;52.182;8.780;2023-04-29T22:17:41;9.30;99.90
36790;DHT22;22740;52.182;8.780;2023-04-29T22:23:49;9.30;99.90
36790;DHT22;22740;52.182;8.780;2023-04-29T22:29:58;9.30;99.90
36790;DHT22;22740;52.182;8.780;2023-04-29T22:36:06;9.20;99.90
36790;DHT22;22740;52.182;8.780;2023-04-29T22:42:15;9.30;99.90
36790;DHT22;22740;52.182;8.780;2023-04-29T22:48:23;9.30;99.90
36790;DHT22;22740;52.182;8.780;2023-04-29T22:54:31;9.10;99.90
36790;DHT22;22740;52.182;8.780;2023-04-29T23:00:42;9.00;99.90
36790;DHT22;22740;52.182;8.780;2023-04-29T23:06:51;8.90;99.90
36790;DHT22;22740;52.182;8.780;2023-04-29T23:13:06;8.90;99.90
36790;DHT22;22740;52.182;8.780;2023-04-29T23:19:14;8.90;99.90
36790;DHT22;22740;52.182;8.780;2023-04-29T23:25:22;8.80;99.90
36790;DHT22;22740;52.182;8.780;2023-04-29T23:31:30;8.80;99.90
36790;DHT22;22740;52.182;8.780;2023-04-29T23:37:38;8.60;99.90
36790;DHT22;22740;52.182;8.780;2023-04-29T23:43:47;8.40;99.90
36790;DHT22;22740;52.182;8.780;2023-04-29T23:49:55;8.20;99.90
36790;DHT22;22740;52.182;8.780;2023-04-29T23:56:03;8.00;99.90
